sensor_id;sensor_type;location;lat;lon;timestamp;P1;durP1;ratioP1;P2;durP2;ratioP2
1925;SDS011;964;42.606;23.588;2024-02-21T00:00:51;12.47;;;7.10;;
1925;SDS011;964;42.606;23.588;2024-02-21T00:03:18;10.77;;;7.10;;
1925;SDS011;964;42.606;23.588;2024-02-21T00:05:46;9.00;;;6.00;;
1925;SDS011;964;42.606;23.588;2024-02-21T00:08:14;9.40;;;6.57;;
1925;SDS011;964;42.606;23.588;2024-02-21T00:10:41;9.60;;;6.73;;
1925;SDS011;964;42.606;23.588;2024-02-21T00:13:07;10.00;;;6.87;;
1925;SDS011;964;42.606;23.588;2024-02-21T00:15:34;8.77;;;6.47;;
1925;SDS011;964;42.606;23.588;2024-02-21T00:18:01;9.07;;;5.80;;
1925;SDS011;964;42.606;23.588;2024-02-21T00:20:28;9.17;;;6.33;;
1925;SDS011;964;42.606;23.588;2024-02-21T00:22:55;10.80;;;7.10;;
1925;SDS011;964;42.606;23.588;2024-02-21T00:25:24;11.20;;;7.33;;
1925;SDS011;964;42.606;23.588;2024-02-21T00:27:51;13.13;;;7.17;;
1925;SDS011;964;42.606;23.588;2024-02-21T00:30:18;8.27;;;6.30;;
1925;SDS011;964;42.606;23.588;2024-02-21T00:32:46;9.33;;;5.97;;
1925;SDS011;964;42.606;23.588;2024-02-21T00:35:13;9.43;;;6.17;;
1925;SDS011;964;42.606;23.588;2024-02-21T00:37:40;9.47;;;6.03;;
1925;SDS011;964;42.606;23.588;2024-02-21T00:40:07;8.87;;;6.80;;
1925;SDS011;964;42.606;23.588;2024-02-21T00:42:35;10.63;;;6.97;;
1925;SDS011;964;42.606;23.588;2024-02-21T00:45:02;9.67;;;6.90;;
1925;SDS011;964;42.606;23.588;2024-02-21T00:47:30;8.03;;;5.80;;
1925;SDS011;964;42.606;23.588;2024-02-21T00:49:56;8.93;;;6.00;;
1925;SDS011;964;42.606;23.588;2024-02-21T00:52:23;8.70;;;6.37;;
1925;SDS011;964;42.606;23.588;2024-02-21T00:54:50;7.80;;;6.13;;
1925;SDS011;964;42.606;23.588;2024-02-21T00:57:17;12.17;;;6.93;;
1925;SDS011;964;42.606;23.588;2024-02-21T00:59:45;12.20;;;6.73;;
1925;SDS011;964;42.606;23.588;2024-02-21T01:02:12;8.97;;;6.90;;
1925;SDS011;964;42.606;23.588;2024-02-21T01:04:38;10.70;;;7.90;;
1925;SDS011;964;42.606;23.588;2024-02-21T01:07:05;13.30;;;8.67;;
1925;SDS011;964;42.606;23.588;2024-02-21T01:09:32;14.00;;;8.67;;
1925;SDS011;964;42.606;23.588;2024-02-21T01:11:59;13.10;;;8.17;;
1925;SDS011;964;42.606;23.588;2024-02-21T01:14:25;11.73;;;8.07;;
1925;SDS011;964;42.606;23.588;2024-02-21T01:16:54;8.70;;;6.57;;
1925;SDS011;964;42.606;23.588;2024-02-21T01:19:21;11.80;;;5.93;;
1925;SDS011;964;42.606;23.588;2024-02-21T01:21:48;9.50;;;6.90;;
1925;SDS011;964;42.606;23.588;2024-02-21T01:24:14;7.40;;;6.10;;
1925;SDS011;964;42.606;23.588;2024-02-21T01:26:41;8.67;;;5.97;;
1925;SDS011;964;42.606;23.588;2024-02-21T01:29:08;12.70;;;6.03;;
1925;SDS011;964;42.606;23.588;2024-02-21T01:31:35;11.43;;;6.93;;
1925;SDS011;964;42.606;23.588;2024-02-21T01:34:03;9.60;;;7.07;;
1925;SDS011;964;42.606;23.588;2024-02-21T01:36:29;9.07;;;5.93;;
1925;SDS011;964;42.606;23.588;2024-02-21T01:38:56;8.03;;;6.37;;
1925;SDS011;964;42.606;23.588;2024-02-21T01:41:23;10.10;;;6.90;;
1925;SDS011;964;42.606;23.588;2024-02-21T01:43:49;9.07;;;6.70;;
1925;SDS011;964;42.606;23.588;2024-02-21T01:46:16;6.47;;;5.60;;
1925;SDS011;964;42.606;23.588;2024-02-21T01:48:44;8.87;;;6.50;;
1925;SDS011;964;42.606;23.588;2024-02-21T01:51:14;10.40;;;7.07;;
1925;SDS011;964;42.606;23.588;2024-02-21T01:53:42;8.57;;;6.17;;
1925;SDS011;964;42.606;23.588;2024-02-21T01:56:10;11.33;;;6.80;;
1925;SDS011;964;42.606;23.588;2024-02-21T01:58:39;8.03;;;5.67;;
1925;SDS011;964;42.606;23.588;2024-02-21T02:01:08;7.73;;;5.70;;
1925;SDS011;964;42.606;23.588;2024-02-21T02:03:36;8.53;;;5.87;;
1925;SDS011;964;42.606;23.588;2024-02-21T02:06:04;8.70;;;6.67;;
1925;SDS011;964;42.606;23.588;2024-02-21T02:08:33;10.67;;;6.57;;
1925;SDS011;964;42.606;23.588;2024-02-21T02:11:00;9.13;;;6.43;;
1925;SDS011;964;42.606;23.588;2024-02-21T02:13:27;7.70;;;6.00;;
1925;SDS011;964;42.606;23.588;2024-02-21T02:15:54;7.30;;;5.00;;
1925;SDS011;964;42.606;23.588;2024-02-21T02:18:21;9.77;;;6.50;;
1925;SDS011;964;42.606;23.588;2024-02-21T02:20:47;9.73;;;6.37;;
1925;SDS011;964;42.606;23.588;2024-02-21T02:23:19;9.20;;;6.13;;
1925;SDS011;964;42.606;23.588;2024-02-21T02:25:48;8.83;;;6.20;;
1925;SDS011;964;42.606;23.588;2024-02-21T02:28:17;9.53;;;6.70;;
1925;SDS011;964;42.606;23.588;2024-02-21T02:30:44;8.80;;;6.20;;
1925;SDS011;964;42.606;23.588;2024-02-21T02:33:11;8.10;;;5.97;;
1925;SDS011;964;42.606;23.588;2024-02-21T02:35:38;9.70;;;6.67;;
1925;SDS011;964;42.606;23.588;2024-02-21T02:38:42;9.90;;;5.83;;
1925;SDS011;964;42.606;23.588;2024-02-21T02:41:26;11.33;;;6.80;;
1925;SDS011;964;42.606;23.588;2024-02-21T02:43:53;11.40;;;6.27;;
1925;SDS011;964;42.606;23.588;2024-02-21T02:46:20;7.73;;;6.00;;
1925;SDS011;964;42.606;23.588;2024-02-21T02:48:46;9.97;;;7.20;;
1925;SDS011;964;42.606;23.588;2024-02-21T02:51:13;10.90;;;7.50;;
1925;SDS011;964;42.606;23.588;2024-02-21T02:53:40;10.17;;;7.07;;
1925;SDS011;964;42.606;23.588;2024-02-21T02:56:08;8.27;;;6.03;;
1925;SDS011;964;42.606;23.588;2024-02-21T02:58:40;9.00;;;7.10;;
1925;SDS011;964;42.606;23.588;2024-02-21T03:01:07;10.47;;;6.90;;
1925;SDS011;964;42.606;23.588;2024-02-21T03:03:34;9.37;;;7.20;;
1925;SDS011;964;42.606;23.588;2024-02-21T03:06:01;10.57;;;7.30;;
1925;SDS011;964;42.606;23.588;2024-02-21T03:08:27;7.50;;;6.70;;
1925;SDS011;964;42.606;23.588;2024-02-21T03:10:54;9.27;;;6.80;;
1925;SDS011;964;42.606;23.588;2024-02-21T03:13:22;8.23;;;5.80;;
1925;SDS011;964;42.606;23.588;2024-02-21T03:15:49;9.20;;;6.63;;
1925;SDS011;964;42.606;23.588;2024-02-21T03:18:16;9.10;;;7.10;;
1925;SDS011;964;42.606;23.588;2024-02-21T03:20:42;10.73;;;6.87;;
1925;SDS011;964;42.606;23.588;2024-02-21T03:23:09;10.13;;;7.10;;
1925;SDS011;964;42.606;23.588;2024-02-21T03:25:36;10.20;;;7.50;;
1925;SDS011;964;42.606;23.588;2024-02-21T03:28:03;11.80;;;7.67;;
1925;SDS011;964;42.606;23.588;2024-02-21T03:30:31;10.60;;;7.17;;
1925;SDS011;964;42.606;23.588;2024-02-21T03:32:58;10.23;;;6.83;;
1925;SDS011;964;42.606;23.588;2024-02-21T03:35:26;12.10;;;7.80;;
1925;SDS011;964;42.606;23.588;2024-02-21T03:37:53;10.97;;;7.93;;
1925;SDS011;964;42.606;23.588;2024-02-21T03:40:20;10.90;;;7.60;;
1925;SDS011;964;42.606;23.588;2024-02-21T03:42:47;8.70;;;7.43;;
1925;SDS011;964;42.606;23.588;2024-02-21T03:45:13;9.77;;;7.10;;
1925;SDS011;964;42.606;23.588;2024-02-21T03:47:42;9.83;;;6.63;;
1925;SDS011;964;42.606;23.588;2024-02-21T03:50:09;9.03;;;7.40;;
1925;SDS011;964;42.606;23.588;2024-02-21T03:52:36;9.70;;;7.33;;
1925;SDS011;964;42.606;23.588;2024-02-21T03:55:03;10.70;;;7.67;;
1925;SDS011;964;42.606;23.588;2024-02-21T03:57:30;10.17;;;7.40;;
1925;SDS011;964;42.606;23.588;2024-02-21T03:59:56;16.60;;;8.07;;
1925;SDS011;964;42.606;23.588;2024-02-21T04:02:23;11.10;;;7.80;;
1925;SDS011;964;42.606;23.588;2024-02-21T04:04:51;13.07;;;9.00;;
1925;SDS011;964;42.606;23.588;2024-02-21T04:07:18;14.03;;;8.60;;
1925;SDS011;964;42.606;23.588;2024-02-21T04:09:45;12.80;;;8.00;;
1925;SDS011;964;42.606;23.588;2024-02-21T04:12:12;20.17;;;10.10;;
1925;SDS011;964;42.606;23.588;2024-02-21T04:14:38;11.23;;;8.33;;
1925;SDS011;964;42.606;23.588;2024-02-21T04:17:05;12.90;;;9.07;;
1925;SDS011;964;42.606;23.588;2024-02-21T04:19:32;14.93;;;9.50;;
1925;SDS011;964;42.606;23.588;2024-02-21T04:22:01;14.63;;;9.67;;
1925;SDS011;964;42.606;23.588;2024-02-21T04:24:28;12.43;;;8.83;;
1925;SDS011;964;42.606;23.588;2024-02-21T04:26:55;17.13;;;10.03;;
1925;SDS011;964;42.606;23.588;2024-02-21T04:29:21;13.40;;;9.83;;
1925;SDS011;964;42.606;23.588;2024-02-21T04:31:48;15.07;;;10.00;;
1925;SDS011;964;42.606;23.588;2024-02-21T04:34:15;13.40;;;8.80;;
1925;SDS011;964;42.606;23.588;2024-02-21T04:36:42;14.43;;;10.00;;
1925;SDS011;964;42.606;23.588;2024-02-21T04:39:10;15.00;;;9.43;;
1925;SDS011;964;42.606;23.588;2024-02-21T04:41:37;15.93;;;10.57;;
1925;SDS011;964;42.606;23.588;2024-02-21T04:44:04;13.00;;;8.80;;
1925;SDS011;964;42.606;23.588;2024-02-21T04:46:31;14.37;;;9.67;;
1925;SDS011;964;42.606;23.588;2024-02-21T04:48:58;16.23;;;10.30;;
1925;SDS011;964;42.606;23.588;2024-02-21T04:51:24;16.30;;;9.90;;
1925;SDS011;964;42.606;23.588;2024-02-21T04:53:51;16.03;;;10.40;;
1925;SDS011;964;42.606;23.588;2024-02-21T04:56:19;15.70;;;10.80;;
1925;SDS011;964;42.606;23.588;2024-02-21T04:58:46;14.60;;;9.80;;
1925;SDS011;964;42.606;23.588;2024-02-21T05:01:13;17.27;;;10.57;;
1925;SDS011;964;42.606;23.588;2024-02-21T05:03:39;15.57;;;10.47;;
1925;SDS011;964;42.606;23.588;2024-02-21T05:06:06;14.07;;;10.17;;
1925;SDS011;964;42.606;23.588;2024-02-21T05:08:33;16.60;;;10.10;;
1925;SDS011;964;42.606;23.588;2024-02-21T05:11:00;15.60;;;9.87;;
1925;SDS011;964;42.606;23.588;2024-02-21T05:13:28;16.23;;;10.07;;
1925;SDS011;964;42.606;23.588;2024-02-21T05:15:54;24.50;;;15.17;;
1925;SDS011;964;42.606;23.588;2024-02-21T05:18:21;23.67;;;16.43;;
1925;SDS011;964;42.606;23.588;2024-02-21T05:20:48;22.77;;;14.90;;
1925;SDS011;964;42.606;23.588;2024-02-21T05:23:15;27.67;;;17.60;;
1925;SDS011;964;42.606;23.588;2024-02-21T05:25:42;32.63;;;20.57;;
1925;SDS011;964;42.606;23.588;2024-02-21T05:28:08;29.67;;;19.00;;
1925;SDS011;964;42.606;23.588;2024-02-21T05:30:38;31.10;;;18.53;;
1925;SDS011;964;42.606;23.588;2024-02-21T05:33:07;26.90;;;15.67;;
1925;SDS011;964;42.606;23.588;2024-02-21T05:35:34;21.53;;;14.97;;
1925;SDS011;964;42.606;23.588;2024-02-21T05:38:01;17.67;;;13.43;;
1925;SDS011;964;42.606;23.588;2024-02-21T05:40:31;22.40;;;13.60;;
1925;SDS011;964;42.606;23.588;2024-02-21T05:42:58;25.17;;;16.37;;
1925;SDS011;964;42.606;23.588;2024-02-21T05:45:25;21.37;;;14.47;;
1925;SDS011;964;42.606;23.588;2024-02-21T05:47:53;19.90;;;13.00;;
1925;SDS011;964;42.606;23.588;2024-02-21T05:50:20;24.23;;;13.90;;
1925;SDS011;964;42.606;23.588;2024-02-21T05:52:48;86.50;;;31.23;;
1925;SDS011;964;42.606;23.588;2024-02-21T05:55:17;88.87;;;36.80;;
1925;SDS011;964;42.606;23.588;2024-02-21T05:57:44;89.77;;;37.53;;
1925;SDS011;964;42.606;23.588;2024-02-21T06:00:11;76.33;;;36.37;;
1925;SDS011;964;42.606;23.588;2024-02-21T06:02:40;65.80;;;31.77;;
1925;SDS011;964;42.606;23.588;2024-02-21T06:05:09;65.63;;;31.77;;
1925;SDS011;964;42.606;23.588;2024-02-21T06:07:35;33.17;;;20.70;;
1925;SDS011;964;42.606;23.588;2024-02-21T06:10:02;25.70;;;15.63;;
1925;SDS011;964;42.606;23.588;2024-02-21T06:12:29;20.07;;;12.90;;
1925;SDS011;964;42.606;23.588;2024-02-21T06:14:56;17.67;;;12.57;;
1925;SDS011;964;42.606;23.588;2024-02-21T06:17:23;18.73;;;12.13;;
1925;SDS011;964;42.606;23.588;2024-02-21T06:19:50;20.83;;;13.10;;
1925;SDS011;964;42.606;23.588;2024-02-21T06:22:18;19.50;;;11.77;;
1925;SDS011;964;42.606;23.588;2024-02-21T06:24:45;19.53;;;13.50;;
1925;SDS011;964;42.606;23.588;2024-02-21T06:27:11;20.43;;;12.80;;
1925;SDS011;964;42.606;23.588;2024-02-21T06:29:40;21.20;;;13.17;;
1925;SDS011;964;42.606;23.588;2024-02-21T06:32:07;23.17;;;12.47;;
1925;SDS011;964;42.606;23.588;2024-02-21T06:34:33;21.90;;;14.30;;
1925;SDS011;964;42.606;23.588;2024-02-21T06:37:00;22.27;;;14.13;;
1925;SDS011;964;42.606;23.588;2024-02-21T06:39:29;24.60;;;13.73;;
1925;SDS011;964;42.606;23.588;2024-02-21T06:41:55;21.87;;;13.23;;
1925;SDS011;964;42.606;23.588;2024-02-21T06:44:22;22.83;;;14.57;;
1925;SDS011;964;42.606;23.588;2024-02-21T06:46:49;22.20;;;14.23;;
1925;SDS011;964;42.606;23.588;2024-02-21T06:49:15;20.67;;;13.40;;
1925;SDS011;964;42.606;23.588;2024-02-21T06:51:42;19.60;;;13.40;;
1925;SDS011;964;42.606;23.588;2024-02-21T06:54:09;21.03;;;13.60;;
1925;SDS011;964;42.606;23.588;2024-02-21T06:56:39;19.20;;;12.20;;
1925;SDS011;964;42.606;23.588;2024-02-21T06:59:06;21.60;;;13.50;;
1925;SDS011;964;42.606;23.588;2024-02-21T07:01:33;21.50;;;13.77;;
1925;SDS011;964;42.606;23.588;2024-02-21T07:04:00;17.70;;;12.17;;
1925;SDS011;964;42.606;23.588;2024-02-21T07:06:27;21.70;;;14.40;;
1925;SDS011;964;42.606;23.588;2024-02-21T07:08:54;18.47;;;12.47;;
1925;SDS011;964;42.606;23.588;2024-02-21T07:11:20;20.13;;;13.13;;
1925;SDS011;964;42.606;23.588;2024-02-21T07:13:50;18.23;;;13.10;;
1925;SDS011;964;42.606;23.588;2024-02-21T07:16:18;21.83;;;13.53;;
1925;SDS011;964;42.606;23.588;2024-02-21T07:18:44;18.23;;;12.97;;
1925;SDS011;964;42.606;23.588;2024-02-21T07:21:12;22.83;;;15.13;;
1925;SDS011;964;42.606;23.588;2024-02-21T07:23:40;20.87;;;13.40;;
1925;SDS011;964;42.606;23.588;2024-02-21T07:26:07;18.57;;;12.37;;
1925;SDS011;964;42.606;23.588;2024-02-21T07:28:33;18.67;;;11.93;;
1925;SDS011;964;42.606;23.588;2024-02-21T07:31:01;16.93;;;12.70;;
1925;SDS011;964;42.606;23.588;2024-02-21T07:33:29;18.93;;;12.60;;
1925;SDS011;964;42.606;23.588;2024-02-21T07:35:56;19.87;;;13.60;;
1925;SDS011;964;42.606;23.588;2024-02-21T07:38:23;20.73;;;13.53;;
1925;SDS011;964;42.606;23.588;2024-02-21T07:40:49;18.27;;;12.80;;
1925;SDS011;964;42.606;23.588;2024-02-21T07:43:16;20.00;;;12.63;;
1925;SDS011;964;42.606;23.588;2024-02-21T07:45:43;17.33;;;12.70;;
1925;SDS011;964;42.606;23.588;2024-02-21T07:48:11;20.33;;;13.10;;
1925;SDS011;964;42.606;23.588;2024-02-21T07:50:37;19.47;;;13.00;;
1925;SDS011;964;42.606;23.588;2024-02-21T07:53:04;22.20;;;14.07;;
1925;SDS011;964;42.606;23.588;2024-02-21T07:55:31;19.23;;;13.23;;
1925;SDS011;964;42.606;23.588;2024-02-21T07:57:58;21.03;;;13.57;;
1925;SDS011;964;42.606;23.588;2024-02-21T08:00:25;19.23;;;13.20;;
1925;SDS011;964;42.606;23.588;2024-02-21T08:02:52;23.50;;;15.60;;
1925;SDS011;964;42.606;23.588;2024-02-21T08:05:20;23.90;;;15.93;;
1925;SDS011;964;42.606;23.588;2024-02-21T08:07:48;23.70;;;15.10;;
1925;SDS011;964;42.606;23.588;2024-02-21T08:10:14;19.67;;;13.30;;
1925;SDS011;964;42.606;23.588;2024-02-21T08:12:42;26.40;;;15.53;;
1925;SDS011;964;42.606;23.588;2024-02-21T08:15:09;19.73;;;13.50;;
1925;SDS011;964;42.606;23.588;2024-02-21T08:17:37;24.13;;;15.00;;
1925;SDS011;964;42.606;23.588;2024-02-21T08:20:04;22.63;;;14.57;;
1925;SDS011;964;42.606;23.588;2024-02-21T08:22:33;18.73;;;14.03;;
1925;SDS011;964;42.606;23.588;2024-02-21T08:25:00;20.93;;;13.67;;
1925;SDS011;964;42.606;23.588;2024-02-21T08:27:26;18.77;;;13.93;;
1925;SDS011;964;42.606;23.588;2024-02-21T08:29:53;22.60;;;14.57;;
1925;SDS011;964;42.606;23.588;2024-02-21T08:32:20;20.03;;;14.57;;
1925;SDS011;964;42.606;23.588;2024-02-21T08:34:46;20.97;;;15.50;;
1925;SDS011;964;42.606;23.588;2024-02-21T08:37:13;20.43;;;14.73;;
1925;SDS011;964;42.606;23.588;2024-02-21T08:39:42;20.60;;;14.40;;
1925;SDS011;964;42.606;23.588;2024-02-21T08:42:08;22.30;;;15.80;;
1925;SDS011;964;42.606;23.588;2024-02-21T08:44:35;22.40;;;15.10;;
1925;SDS011;964;42.606;23.588;2024-02-21T08:47:05;21.10;;;15.53;;
1925;SDS011;964;42.606;23.588;2024-02-21T08:49:34;25.17;;;17.37;;
1925;SDS011;964;42.606;23.588;2024-02-21T08:52:01;21.80;;;15.60;;
1925;SDS011;964;42.606;23.588;2024-02-21T08:54:28;25.53;;;17.17;;
1925;SDS011;964;42.606;23.588;2024-02-21T08:56:56;24.40;;;16.30;;
1925;SDS011;964;42.606;23.588;2024-02-21T08:59:23;22.93;;;16.03;;
1925;SDS011;964;42.606;23.588;2024-02-21T09:01:51;20.57;;;16.00;;
1925;SDS011;964;42.606;23.588;2024-02-21T09:04:18;18.27;;;13.93;;
1925;SDS011;964;42.606;23.588;2024-02-21T09:06:45;19.80;;;15.37;;
1925;SDS011;964;42.606;23.588;2024-02-21T09:09:12;20.30;;;15.33;;
1925;SDS011;964;42.606;23.588;2024-02-21T09:11:38;18.27;;;14.23;;
1925;SDS011;964;42.606;23.588;2024-02-21T09:14:07;23.90;;;16.40;;
1925;SDS011;964;42.606;23.588;2024-02-21T09:16:34;19.17;;;14.57;;
1925;SDS011;964;42.606;23.588;2024-02-21T09:19:00;20.77;;;15.00;;
1925;SDS011;964;42.606;23.588;2024-02-21T09:21:27;22.03;;;15.90;;
1925;SDS011;964;42.606;23.588;2024-02-21T09:23:54;19.57;;;14.80;;
1925;SDS011;964;42.606;23.588;2024-02-21T09:26:21;22.23;;;16.23;;
1925;SDS011;964;42.606;23.588;2024-02-21T09:28:48;23.73;;;16.27;;
1925;SDS011;964;42.606;23.588;2024-02-21T09:31:16;22.17;;;15.17;;
1925;SDS011;964;42.606;23.588;2024-02-21T09:33:43;24.33;;;16.50;;
1925;SDS011;964;42.606;23.588;2024-02-21T09:36:09;21.27;;;15.47;;
1925;SDS011;964;42.606;23.588;2024-02-21T09:38:36;21.87;;;15.03;;
1925;SDS011;964;42.606;23.588;2024-02-21T09:41:08;22.13;;;16.73;;
1925;SDS011;964;42.606;23.588;2024-02-21T09:43:42;21.70;;;16.57;;
1925;SDS011;964;42.606;23.588;2024-02-21T09:46:12;22.40;;;15.50;;
1925;SDS011;964;42.606;23.588;2024-02-21T09:48:45;21.67;;;14.20;;
1925;SDS011;964;42.606;23.588;2024-02-21T09:51:26;24.17;;;14.57;;
1925;SDS011;964;42.606;23.588;2024-02-21T09:53:54;19.13;;;14.10;;
1925;SDS011;964;42.606;23.588;2024-02-21T09:56:23;20.93;;;14.10;;
1925;SDS011;964;42.606;23.588;2024-02-21T09:58:50;22.10;;;14.67;;
1925;SDS011;964;42.606;23.588;2024-02-21T10:01:17;19.47;;;13.00;;
1925;SDS011;964;42.606;23.588;2024-02-21T10:03:45;18.30;;;11.90;;
1925;SDS011;964;42.606;23.588;2024-02-21T10:06:13;18.20;;;12.70;;
1925;SDS011;964;42.606;23.588;2024-02-21T10:08:39;16.73;;;12.10;;
1925;SDS011;964;42.606;23.588;2024-02-21T10:11:06;15.30;;;11.23;;
1925;SDS011;964;42.606;23.588;2024-02-21T10:13:34;15.60;;;10.90;;
1925;SDS011;964;42.606;23.588;2024-02-21T10:16:03;16.53;;;11.80;;
1925;SDS011;964;42.606;23.588;2024-02-21T10:18:31;14.33;;;10.83;;
1925;SDS011;964;42.606;23.588;2024-02-21T10:21:03;13.30;;;10.77;;
1925;SDS011;964;42.606;23.588;2024-02-21T10:23:40;17.13;;;12.03;;
1925;SDS011;964;42.606;23.588;2024-02-21T10:26:08;16.93;;;11.97;;
1925;SDS011;964;42.606;23.588;2024-02-21T10:28:35;13.43;;;10.30;;
1925;SDS011;964;42.606;23.588;2024-02-21T10:31:03;16.83;;;11.60;;
1925;SDS011;964;42.606;23.588;2024-02-21T10:33:30;13.77;;;9.93;;
1925;SDS011;964;42.606;23.588;2024-02-21T10:36:07;14.20;;;10.27;;
1925;SDS011;964;42.606;23.588;2024-02-21T10:38:35;17.23;;;11.20;;
1925;SDS011;964;42.606;23.588;2024-02-21T10:41:03;14.33;;;9.47;;
1925;SDS011;964;42.606;23.588;2024-02-21T10:43:32;12.80;;;9.40;;
1925;SDS011;964;42.606;23.588;2024-02-21T10:46:06;13.87;;;10.67;;
1925;SDS011;964;42.606;23.588;2024-02-21T10:48:37;16.20;;;10.40;;
1925;SDS011;964;42.606;23.588;2024-02-21T10:51:12;13.50;;;9.97;;
1925;SDS011;964;42.606;23.588;2024-02-21T10:53:44;12.90;;;9.87;;
1925;SDS011;964;42.606;23.588;2024-02-21T10:56:16;15.47;;;10.00;;
1925;SDS011;964;42.606;23.588;2024-02-21T10:58:49;13.70;;;9.57;;
1925;SDS011;964;42.606;23.588;2024-02-21T11:01:17;13.27;;;10.30;;
1925;SDS011;964;42.606;23.588;2024-02-21T11:03:45;12.87;;;9.93;;
1925;SDS011;964;42.606;23.588;2024-02-21T11:06:15;14.00;;;9.67;;
1925;SDS011;964;42.606;23.588;2024-02-21T11:08:44;13.77;;;10.40;;
1925;SDS011;964;42.606;23.588;2024-02-21T11:11:12;13.27;;;9.47;;
1925;SDS011;964;42.606;23.588;2024-02-21T11:13:42;14.33;;;10.63;;
1925;SDS011;964;42.606;23.588;2024-02-21T11:16:11;13.83;;;10.30;;
1925;SDS011;964;42.606;23.588;2024-02-21T11:18:38;15.00;;;11.20;;
1925;SDS011;964;42.606;23.588;2024-02-21T11:21:05;12.23;;;9.43;;
1925;SDS011;964;42.606;23.588;2024-02-21T11:23:36;11.70;;;9.63;;
1925;SDS011;964;42.606;23.588;2024-02-21T11:26:03;12.30;;;9.73;;
1925;SDS011;964;42.606;23.588;2024-02-21T11:28:31;13.40;;;9.43;;
1925;SDS011;964;42.606;23.588;2024-02-21T11:31:06;11.33;;;8.13;;
1925;SDS011;964;42.606;23.588;2024-02-21T11:33:33;12.53;;;9.23;;
1925;SDS011;964;42.606;23.588;2024-02-21T11:36:00;15.10;;;9.20;;
1925;SDS011;964;42.606;23.588;2024-02-21T11:38:29;12.57;;;9.27;;
1925;SDS011;964;42.606;23.588;2024-02-21T11:40:57;10.00;;;8.40;;
1925;SDS011;964;42.606;23.588;2024-02-21T11:43:24;11.37;;;8.87;;
1925;SDS011;964;42.606;23.588;2024-02-21T11:45:58;10.00;;;7.90;;
1925;SDS011;964;42.606;23.588;2024-02-21T11:48:25;9.70;;;7.33;;
1925;SDS011;964;42.606;23.588;2024-02-21T11:50:52;11.77;;;8.90;;
1925;SDS011;964;42.606;23.588;2024-02-21T11:53:21;11.20;;;7.83;;
1925;SDS011;964;42.606;23.588;2024-02-21T11:55:48;11.30;;;8.93;;
1925;SDS011;964;42.606;23.588;2024-02-21T11:58:16;8.53;;;7.00;;
1925;SDS011;964;42.606;23.588;2024-02-21T12:00:43;13.87;;;9.30;;
1925;SDS011;964;42.606;23.588;2024-02-21T12:03:10;12.40;;;7.83;;
1925;SDS011;964;42.606;23.588;2024-02-21T12:05:37;12.93;;;8.90;;
1925;SDS011;964;42.606;23.588;2024-02-21T12:08:04;11.00;;;8.13;;
1925;SDS011;964;42.606;23.588;2024-02-21T12:10:31;10.40;;;8.07;;
1925;SDS011;964;42.606;23.588;2024-02-21T12:13:05;9.93;;;7.60;;
1925;SDS011;964;42.606;23.588;2024-02-21T12:15:34;12.40;;;8.37;;
1925;SDS011;964;42.606;23.588;2024-02-21T12:18:01;11.77;;;8.10;;
1925;SDS011;964;42.606;23.588;2024-02-21T12:20:28;8.70;;;6.77;;
1925;SDS011;964;42.606;23.588;2024-02-21T12:22:56;10.10;;;8.17;;
1925;SDS011;964;42.606;23.588;2024-02-21T12:25:23;10.17;;;7.70;;
1925;SDS011;964;42.606;23.588;2024-02-21T12:27:51;12.60;;;9.23;;
1925;SDS011;964;42.606;23.588;2024-02-21T12:30:18;9.13;;;7.77;;
1925;SDS011;964;42.606;23.588;2024-02-21T12:32:47;12.40;;;8.47;;
1925;SDS011;964;42.606;23.588;2024-02-21T12:35:14;10.50;;;7.93;;
1925;SDS011;964;42.606;23.588;2024-02-21T12:37:42;9.00;;;7.20;;
1925;SDS011;964;42.606;23.588;2024-02-21T12:40:10;8.50;;;6.77;;
1925;SDS011;964;42.606;23.588;2024-02-21T12:42:38;6.17;;;4.93;;
1925;SDS011;964;42.606;23.588;2024-02-21T12:45:05;6.13;;;5.27;;
1925;SDS011;964;42.606;23.588;2024-02-21T12:47:33;8.43;;;5.90;;
1925;SDS011;964;42.606;23.588;2024-02-21T12:50:01;6.13;;;5.53;;
1925;SDS011;964;42.606;23.588;2024-02-21T12:52:31;5.97;;;5.10;;
1925;SDS011;964;42.606;23.588;2024-02-21T12:54:58;6.27;;;5.00;;
1925;SDS011;964;42.606;23.588;2024-02-21T12:57:25;6.23;;;5.20;;
1925;SDS011;964;42.606;23.588;2024-02-21T12:59:52;7.97;;;5.87;;
1925;SDS011;964;42.606;23.588;2024-02-21T13:02:18;4.80;;;4.30;;
1925;SDS011;964;42.606;23.588;2024-02-21T13:04:46;8.00;;;4.80;;
1925;SDS011;964;42.606;23.588;2024-02-21T13:07:14;6.97;;;5.00;;
1925;SDS011;964;42.606;23.588;2024-02-21T13:09:41;4.67;;;4.27;;
1925;SDS011;964;42.606;23.588;2024-02-21T13:12:08;7.13;;;5.33;;
1925;SDS011;964;42.606;23.588;2024-02-21T13:14:35;7.43;;;6.03;;
1925;SDS011;964;42.606;23.588;2024-02-21T13:17:04;6.57;;;4.60;;
1925;SDS011;964;42.606;23.588;2024-02-21T13:19:31;5.87;;;5.03;;
1925;SDS011;964;42.606;23.588;2024-02-21T13:21:57;7.90;;;5.77;;
1925;SDS011;964;42.606;23.588;2024-02-21T13:24:26;6.80;;;4.80;;
1925;SDS011;964;42.606;23.588;2024-02-21T13:26:52;7.67;;;5.00;;
1925;SDS011;964;42.606;23.588;2024-02-21T13:29:19;6.43;;;5.23;;
1925;SDS011;964;42.606;23.588;2024-02-21T13:31:46;8.30;;;6.20;;
1925;SDS011;964;42.606;23.588;2024-02-21T13:34:15;8.70;;;6.93;;
1925;SDS011;964;42.606;23.588;2024-02-21T13:36:42;8.53;;;6.73;;
1925;SDS011;964;42.606;23.588;2024-02-21T13:39:08;10.37;;;7.57;;
1925;SDS011;964;42.606;23.588;2024-02-21T13:41:39;11.23;;;8.30;;
1925;SDS011;964;42.606;23.588;2024-02-21T13:44:07;9.30;;;6.20;;
1925;SDS011;964;42.606;23.588;2024-02-21T13:46:34;9.57;;;7.87;;
1925;SDS011;964;42.606;23.588;2024-02-21T13:49:02;13.50;;;8.70;;
1925;SDS011;964;42.606;23.588;2024-02-21T13:51:31;9.77;;;7.30;;
1925;SDS011;964;42.606;23.588;2024-02-21T13:53:58;10.10;;;7.17;;
1925;SDS011;964;42.606;23.588;2024-02-21T13:56:25;8.60;;;7.50;;
1925;SDS011;964;42.606;23.588;2024-02-21T13:58:53;7.47;;;5.57;;
1925;SDS011;964;42.606;23.588;2024-02-21T14:01:20;9.10;;;6.53;;
1925;SDS011;964;42.606;23.588;2024-02-21T14:03:47;7.40;;;4.50;;
1925;SDS011;964;42.606;23.588;2024-02-21T14:06:14;9.93;;;6.90;;
1925;SDS011;964;42.606;23.588;2024-02-21T14:08:40;10.07;;;7.90;;
1925;SDS011;964;42.606;23.588;2024-02-21T14:11:07;9.00;;;7.10;;
1925;SDS011;964;42.606;23.588;2024-02-21T14:13:35;8.07;;;6.60;;
1925;SDS011;964;42.606;23.588;2024-02-21T14:16:03;11.00;;;7.27;;
1925;SDS011;964;42.606;23.588;2024-02-21T14:18:38;9.80;;;7.47;;
1925;SDS011;964;42.606;23.588;2024-02-21T14:21:06;12.80;;;8.50;;
1925;SDS011;964;42.606;23.588;2024-02-21T14:23:33;10.97;;;7.90;;
1925;SDS011;964;42.606;23.588;2024-02-21T14:26:00;10.30;;;8.17;;
1925;SDS011;964;42.606;23.588;2024-02-21T14:28:27;13.10;;;9.10;;
1925;SDS011;964;42.606;23.588;2024-02-21T14:30:54;12.00;;;8.33;;
1925;SDS011;964;42.606;23.588;2024-02-21T14:33:23;10.30;;;8.20;;
1925;SDS011;964;42.606;23.588;2024-02-21T14:35:50;12.70;;;8.20;;
1925;SDS011;964;42.606;23.588;2024-02-21T14:38:17;9.60;;;7.37;;
1925;SDS011;964;42.606;23.588;2024-02-21T14:40:45;11.63;;;9.00;;
1925;SDS011;964;42.606;23.588;2024-02-21T14:43:12;11.87;;;8.20;;
1925;SDS011;964;42.606;23.588;2024-02-21T14:45:39;12.53;;;7.70;;
1925;SDS011;964;42.606;23.588;2024-02-21T14:48:06;14.13;;;9.33;;
1925;SDS011;964;42.606;23.588;2024-02-21T14:50:34;13.43;;;8.40;;
1925;SDS011;964;42.606;23.588;2024-02-21T14:53:01;12.60;;;9.30;;
1925;SDS011;964;42.606;23.588;2024-02-21T14:55:28;13.87;;;8.87;;
1925;SDS011;964;42.606;23.588;2024-02-21T14:57:55;10.83;;;8.03;;
1925;SDS011;964;42.606;23.588;2024-02-21T15:00:22;14.00;;;8.73;;
1925;SDS011;964;42.606;23.588;2024-02-21T15:02:55;10.77;;;8.37;;